sensor_id;sensor_type;location;lat;lon;timestamp;pressure;altitude;pressure_sealevel;temperature;humidity
11011;BME280;5558;42.702;23.178;2023-05-03T00:01:40;93927.25;;;11.28;51.29
11011;BME280;5558;42.702;23.178;2023-05-03T00:04:08;93908.19;;;11.26;51.17
11011;BME280;5558;42.702;23.178;2023-05-03T00:06:35;93895.19;;;11.19;51.84
11011;BME280;5558;42.702;23.178;2023-05-03T00:09:01;93908.97;;;11.21;51.59
11011;BME280;5558;42.702;23.178;2023-05-03T00:11:28;93917.94;;;11.15;51.83
11011;BME280;5558;42.702;23.178;2023-05-03T00:13:55;93922.44;;;11.15;52.06
11011;BME280;5558;42.702;23.178;2023-05-03T00:16:23;93933.31;;;11.18;52.06
11011;BME280;5558;42.702;23.178;2023-05-03T00:18:50;93924.03;;;11.11;51.56
11011;BME280;5558;42.702;23.178;2023-05-03T00:21:16;93937.00;;;11.07;51.67
11011;BME280;5558;42.702;23.178;2023-05-03T00:23:43;93916.84;;;11.06;50.96
11011;BME280;5558;42.702;23.178;2023-05-03T00:26:10;93940.94;;;10.99;51.57
11011;BME280;5558;42.702;23.178;2023-05-03T00:28:36;93929.84;;;10.97;51.21
11011;BME280;5558;42.702;23.178;2023-05-03T00:31:07;93942.25;;;10.92;51.42
11011;BME280;5558;42.702;23.178;2023-05-03T00:33:35;93952.56;;;10.88;51.54
11011;BME280;5558;42.702;23.178;2023-05-03T00:36:06;93950.94;;;10.87;51.25
11011;BME280;5558;42.702;23.178;2023-05-03T00:38:33;93940.88;;;10.84;51.97
11011;BME280;5558;42.702;23.178;2023-05-03T00:41:00;93938.75;;;10.81;52.03
11011;BME280;5558;42.702;23.178;2023-05-03T00:43:27;93937.19;;;10.80;51.90
11011;BME280;5558;42.702;23.178;2023-05-03T00:45:54;93939.03;;;10.80;52.00
11011;BME280;5558;42.702;23.178;2023-05-03T00:48:21;93934.78;;;10.79;52.05
11011;BME280;5558;42.702;23.178;2023-05-03T00:50:49;93945.88;;;10.76;51.95
11011;BME280;5558;42.702;23.178;2023-05-03T00:53:18;93936.88;;;10.72;52.12
11011;BME280;5558;42.702;23.178;2023-05-03T00:55:45;93936.88;;;10.72;52.22
11011;BME280;5558;42.702;23.178;2023-05-03T00:58:11;93929.94;;;10.66;51.74
11011;BME280;5558;42.702;23.178;2023-05-03T01:00:38;93932.81;;;10.59;52.18
11011;BME280;5558;42.702;23.178;2023-05-03T01:03:05;93935.44;;;10.54;52.16
11011;BME280;5558;42.702;23.178;2023-05-03T01:05:53;93939.16;;;10.53;52.19
11011;BME280;5558;42.702;23.178;2023-05-03T01:08:32;93921.91;;;10.46;52.15
11011;BME280;5558;42.702;23.178;2023-05-03T01:11:06;93925.34;;;10.46;51.55
11011;BME280;5558;42.702;23.178;2023-05-03T01:13:40;93892.41;;;10.22;52.38
11011;BME280;5558;42.702;23.178;2023-05-03T01:16:14;93918.91;;;10.32;52.08
11011;BME280;5558;42.702;23.178;2023-05-03T01:18:44;93908.56;;;10.26;52.52
11011;BME280;5558;42.702;23.178;2023-05-03T01:21:15;93924.97;;;10.23;52.18
11011;BME280;5558;42.702;23.178;2023-05-03T01:23:46;93923.28;;;10.12;52.34
11011;BME280;5558;42.702;23.178;2023-05-03T01:26:21;93903.19;;;10.11;52.09
11011;BME280;5558;42.702;23.178;2023-05-03T01:28:48;93913.97;;;10.04;52.52
11011;BME280;5558;42.702;23.178;2023-05-03T01:31:20;93921.91;;;10.04;52.49
11011;BME280;5558;42.702;23.178;2023-05-03T01:33:54;93924.28;;;10.06;52.58
11011;BME280;5558;42.702;23.178;2023-05-03T01:36:28;93920.25;;;9.98;53.06
11011;BME280;5558;42.702;23.178;2023-05-03T01:38:59;93918.94;;;9.96;52.86
11011;BME280;5558;42.702;23.178;2023-05-03T01:41:28;93916.53;;;9.94;52.64
11011;BME280;5558;42.702;23.178;2023-05-03T01:43:56;93906.75;;;9.95;53.29
11011;BME280;5558;42.702;23.178;2023-05-03T01:46:23;93915.19;;;9.92;53.05
11011;BME280;5558;42.702;23.178;2023-05-03T01:48:50;93911.50;;;9.93;53.36
11011;BME280;5558;42.702;23.178;2023-05-03T01:51:17;93912.00;;;9.89;53.84
11011;BME280;5558;42.702;23.178;2023-05-03T01:53:44;93920.97;;;9.88;53.48
11011;BME280;5558;42.702;23.178;2023-05-03T01:56:10;93902.16;;;9.80;53.61
11011;BME280;5558;42.702;23.178;2023-05-03T01:58:39;93900.34;;;9.85;53.68
11011;BME280;5558;42.702;23.178;2023-05-03T02:01:05;93897.16;;;9.83;53.32
11011;BME280;5558;42.702;23.178;2023-05-03T02:03:32;93896.06;;;9.79;53.88
11011;BME280;5558;42.702;23.178;2023-05-03T02:05:59;93891.28;;;9.76;54.21
11011;BME280;5558;42.702;23.178;2023-05-03T02:08:26;93896.53;;;9.71;54.83
11011;BME280;5558;42.702;23.178;2023-05-03T02:10:53;93894.41;;;9.68;54.87
11011;BME280;5558;42.702;23.178;2023-05-03T02:13:19;93897.25;;;9.62;55.01
11011;BME280;5558;42.702;23.178;2023-05-03T02:15:47;93896.16;;;9.58;55.46
11011;BME280;5558;42.702;23.178;2023-05-03T02:18:14;93897.19;;;9.52;54.84
11011;BME280;5558;42.702;23.178;2023-05-03T02:20:44;93900.56;;;9.47;55.71
11011;BME280;5558;42.702;23.178;2023-05-03T02:23:11;93897.34;;;9.45;55.08
11011;BME280;5558;42.702;23.178;2023-05-03T02:25:38;93888.38;;;9.41;56.08
11011;BME280;5558;42.702;23.178;2023-05-03T02:28:05;93894.63;;;9.35;56.44
11011;BME280;5558;42.702;23.178;2023-05-03T02:30:32;93895.66;;;9.29;57.62
11011;BME280;5558;42.702;23.178;2023-05-03T02:33:00;93901.72;;;9.30;57.22
11011;BME280;5558;42.702;23.178;2023-05-03T02:35:27;93888.47;;;9.25;57.04
11011;BME280;5558;42.702;23.178;2023-05-03T02:37:54;93893.22;;;9.23;57.78
11011;BME280;5558;42.702;23.178;2023-05-03T02:40:21;93895.06;;;9.22;58.07
11011;BME280;5558;42.702;23.178;2023-05-03T02:42:48;93895.81;;;9.18;58.59
11011;BME280;5558;42.702;23.178;2023-05-03T02:45:15;93897.13;;;9.20;58.57
11011;BME280;5558;42.702;23.178;2023-05-03T02:47:42;93914.59;;;9.21;57.58
11011;BME280;5558;42.702;23.178;2023-05-03T02:50:10;93906.13;;;9.19;58.09
11011;BME280;5558;42.702;23.178;2023-05-03T02:52:37;93908.00;;;9.24;58.68
11011;BME280;5558;42.702;23.178;2023-05-03T02:55:04;93905.41;;;9.29;58.20
11011;BME280;5558;42.702;23.178;2023-05-03T02:57:31;93892.19;;;9.29;57.72
11011;BME280;5558;42.702;23.178;2023-05-03T02:59:58;93907.75;;;9.25;58.36
11011;BME280;5558;42.702;23.178;2023-05-03T03:02:25;93912.56;;;9.28;59.05
11011;BME280;5558;42.702;23.178;2023-05-03T03:04:51;93908.00;;;9.24;58.72
11011;BME280;5558;42.702;23.178;2023-05-03T03:07:20;93905.09;;;9.25;58.00
11011;BME280;5558;42.702;23.178;2023-05-03T03:09:46;93923.13;;;9.28;57.43
11011;BME280;5558;42.702;23.178;2023-05-03T03:12:13;93914.78;;;9.15;58.67
11011;BME280;5558;42.702;23.178;2023-05-03T03:14:40;93901.75;;;9.08;58.24
11011;BME280;5558;42.702;23.178;2023-05-03T03:17:10;93919.78;;;9.11;58.93
11011;BME280;5558;42.702;23.178;2023-05-03T03:19:37;93914.53;;;9.16;59.77
11011;BME280;5558;42.702;23.178;2023-05-03T03:22:04;93915.31;;;9.17;58.58
11011;BME280;5558;42.702;23.178;2023-05-03T03:24:32;93911.41;;;9.19;59.51
11011;BME280;5558;42.702;23.178;2023-05-03T03:26:58;93924.59;;;9.19;59.35
11011;BME280;5558;42.702;23.178;2023-05-03T03:29:27;93927.00;;;9.21;59.17
11011;BME280;5558;42.702;23.178;2023-05-03T03:31:54;93915.66;;;9.25;58.97
11011;BME280;5558;42.702;23.178;2023-05-03T03:34:21;93924.41;;;9.26;60.38
11011;BME280;5558;42.702;23.178;2023-05-03T03:36:48;93922.78;;;9.20;60.25
11011;BME280;5558;42.702;23.178;2023-05-03T03:39:14;93934.66;;;9.22;60.32
11011;BME280;5558;42.702;23.178;2023-05-03T03:41:43;93945.47;;;9.21;60.30
11011;BME280;5558;42.702;23.178;2023-05-03T03:44:10;93946.78;;;9.18;60.02
11011;BME280;5558;42.702;23.178;2023-05-03T03:46:36;93949.75;;;9.27;59.73
11011;BME280;5558;42.702;23.178;2023-05-03T03:49:03;93935.97;;;9.20;59.95
11011;BME280;5558;42.702;23.178;2023-05-03T03:51:30;93927.34;;;9.29;60.17
11011;BME280;5558;42.702;23.178;2023-05-03T03:53:56;93934.47;;;9.29;60.32
11011;BME280;5558;42.702;23.178;2023-05-03T03:56:23;93929.72;;;9.31;60.89
11011;BME280;5558;42.702;23.178;2023-05-03T03:58:52;93936.84;;;9.30;60.00
11011;BME280;5558;42.702;23.178;2023-05-03T04:01:19;93934.16;;;9.25;60.04
11011;BME280;5558;42.702;23.178;2023-05-03T04:03:45;93948.53;;;9.34;59.06
11011;BME280;5558;42.702;23.178;2023-05-03T04:06:12;93945.88;;;9.34;60.02
11011;BME280;5558;42.702;23.178;2023-05-03T04:08:39;93943.78;;;9.36;60.16
11011;BME280;5558;42.702;23.178;2023-05-03T04:11:09;93938.25;;;9.38;60.08
11011;BME280;5558;42.702;23.178;2023-05-03T04:13:36;93946.97;;;9.38;59.67
11011;BME280;5558;42.702;23.178;2023-05-03T04:16:05;93942.19;;;9.35;58.67
11011;BME280;5558;42.702;23.178;2023-05-03T04:18:32;93952.78;;;9.40;59.16
11011;BME280;5558;42.702;23.178;2023-05-03T04:20:59;93947.28;;;9.42;59.24
11011;BME280;5558;42.702;23.178;2023-05-03T04:23:26;93953.91;;;9.44;58.51
11011;BME280;5558;42.702;23.178;2023-05-03T04:25:53;93958.13;;;9.45;59.53
11011;BME280;5558;42.702;23.178;2023-05-03T04:28:21;93959.75;;;9.46;57.93
11011;BME280;5558;42.702;23.178;2023-05-03T04:30:49;93973.00;;;9.51;58.97
11011;BME280;5558;42.702;23.178;2023-05-03T04:33:17;93943.69;;;9.26;58.15
11011;BME280;5558;42.702;23.178;2023-05-03T04:35:44;93982.50;;;9.52;58.07
11011;BME280;5558;42.702;23.178;2023-05-03T04:38:14;93992.03;;;9.53;58.57
11011;BME280;5558;42.702;23.178;2023-05-03T04:40:40;93988.34;;;9.54;58.46
11011;BME280;5558;42.702;23.178;2023-05-03T04:43:07;94003.94;;;9.56;59.32
11011;BME280;5558;42.702;23.178;2023-05-03T04:45:34;94000.03;;;9.58;58.88
11011;BME280;5558;42.702;23.178;2023-05-03T04:48:01;93990.47;;;9.57;59.19
11011;BME280;5558;42.702;23.178;2023-05-03T04:50:30;94003.22;;;9.60;58.47
11011;BME280;5558;42.702;23.178;2023-05-03T04:52:57;93999.25;;;9.63;58.33
11011;BME280;5558;42.702;23.178;2023-05-03T04:55:24;94007.19;;;9.63;58.10
11011;BME280;5558;42.702;23.178;2023-05-03T04:57:51;94008.56;;;9.65;58.13
11011;BME280;5558;42.702;23.178;2023-05-03T05:00:18;94004.84;;;9.66;58.91
11011;BME280;5558;42.702;23.178;2023-05-03T05:02:45;94008.28;;;9.67;57.88
11011;BME280;5558;42.702;23.178;2023-05-03T05:05:12;94006.88;;;9.59;58.27
11011;BME280;5558;42.702;23.178;2023-05-03T05:07:40;94025.47;;;9.69;58.32
11011;BME280;5558;42.702;23.178;2023-05-03T05:10:08;94028.94;;;9.70;58.54
11011;BME280;5558;42.702;23.178;2023-05-03T05:12:35;94016.44;;;9.60;58.88
11011;BME280;5558;42.702;23.178;2023-05-03T05:15:02;94029.28;;;9.52;60.43
11011;BME280;5558;42.702;23.178;2023-05-03T05:17:29;94018.16;;;9.50;63.08
11011;BME280;5558;42.702;23.178;2023-05-03T05:19:56;94024.00;;;9.30;64.00
11011;BME280;5558;42.702;23.178;2023-05-03T05:22:22;94025.91;;;9.13;67.21
11011;BME280;5558;42.702;23.178;2023-05-03T05:24:51;94032.63;;;8.99;70.35
11011;BME280;5558;42.702;23.178;2023-05-03T05:27:17;94037.78;;;8.89;73.53
11011;BME280;5558;42.702;23.178;2023-05-03T05:29:44;94050.28;;;8.77;77.78
11011;BME280;5558;42.702;23.178;2023-05-03T05:32:11;94037.50;;;8.69;79.84
11011;BME280;5558;42.702;23.178;2023-05-03T05:34:38;93993.84;;;8.40;81.76
11011;BME280;5558;42.702;23.178;2023-05-03T05:37:05;94055.97;;;8.69;84.52
11011;BME280;5558;42.702;23.178;2023-05-03T05:39:31;94037.50;;;8.69;87.70
11011;BME280;5558;42.702;23.178;2023-05-03T05:41:59;94040.94;;;8.70;91.19
11011;BME280;5558;42.702;23.178;2023-05-03T05:44:27;94042.94;;;8.79;95.50
11011;BME280;5558;42.702;23.178;2023-05-03T05:46:53;94052.19;;;8.82;90.76
11011;BME280;5558;42.702;23.178;2023-05-03T05:49:20;94044.97;;;8.94;92.23
11011;BME280;5558;42.702;23.178;2023-05-03T05:51:47;94029.38;;;8.92;90.60
11011;BME280;5558;42.702;23.178;2023-05-03T05:54:13;94044.41;;;9.13;88.79
11011;BME280;5558;42.702;23.178;2023-05-03T05:56:40;94038.03;;;9.09;89.97
11011;BME280;5558;42.702;23.178;2023-05-03T05:59:08;94031.94;;;9.09;89.62
11011;BME280;5558;42.702;23.178;2023-05-03T06:01:35;94042.81;;;9.12;87.77
11011;BME280;5558;42.702;23.178;2023-05-03T06:04:05;94043.69;;;9.18;90.17
11011;BME280;5558;42.702;23.178;2023-05-03T06:06:32;94052.31;;;9.13;86.34
11011;BME280;5558;42.702;23.178;2023-05-03T06:08:59;94041.22;;;9.11;84.60
11011;BME280;5558;42.702;23.178;2023-05-03T06:11:26;94034.94;;;9.17;90.13
11011;BME280;5558;42.702;23.178;2023-05-03T06:13:53;94042.88;;;9.17;88.28
11011;BME280;5558;42.702;23.178;2023-05-03T06:16:22;94044.91;;;9.10;85.27
11011;BME280;5558;42.702;23.178;2023-05-03T06:18:49;94032.25;;;9.12;87.53
11011;BME280;5558;42.702;23.178;2023-05-03T06:21:15;94040.78;;;9.19;87.10
11011;BME280;5558;42.702;23.178;2023-05-03T06:23:42;94037.16;;;9.25;86.40
11011;BME280;5558;42.702;23.178;2023-05-03T06:26:09;94034.63;;;9.35;88.48
11011;BME280;5558;42.702;23.178;2023-05-03T06:28:36;94034.47;;;9.42;83.44
11011;BME280;5558;42.702;23.178;2023-05-03T06:31:03;94032.66;;;9.47;84.38
11011;BME280;5558;42.702;23.178;2023-05-03T06:33:31;94037.25;;;9.57;80.21
11011;BME280;5558;42.702;23.178;2023-05-03T06:35:57;94025.78;;;9.73;89.41
11011;BME280;5558;42.702;23.178;2023-05-03T06:38:24;94031.94;;;9.78;82.71
11011;BME280;5558;42.702;23.178;2023-05-03T06:40:51;94032.56;;;9.91;81.59
11011;BME280;5558;42.702;23.178;2023-05-03T06:43:17;94027.59;;;9.94;79.73
11011;BME280;5558;42.702;23.178;2023-05-03T06:45:45;94026.28;;;9.97;79.20
11011;BME280;5558;42.702;23.178;2023-05-03T06:48:12;94025.56;;;10.06;80.09
11011;BME280;5558;42.702;23.178;2023-05-03T06:50:40;94021.88;;;10.07;78.63
11011;BME280;5558;42.702;23.178;2023-05-03T06:53:07;94016.09;;;10.10;79.70
11011;BME280;5558;42.702;23.178;2023-05-03T06:55:34;94026.44;;;10.12;80.09
11011;BME280;5558;42.702;23.178;2023-05-03T06:58:01;94022.25;;;9.89;78.13
11011;BME280;5558;42.702;23.178;2023-05-03T07:00:27;94008.25;;;9.94;80.87
11011;BME280;5558;42.702;23.178;2023-05-03T07:02:55;94005.50;;;9.78;76.62
11011;BME280;5558;42.702;23.178;2023-05-03T07:05:22;94010.81;;;9.83;80.36
11011;BME280;5558;42.702;23.178;2023-05-03T07:07:50;94011.59;;;9.79;77.22
11011;BME280;5558;42.702;23.178;2023-05-03T07:10:16;94019.00;;;9.82;78.79
11011;BME280;5558;42.702;23.178;2023-05-03T07:12:43;94015.56;;;9.81;78.05
11011;BME280;5558;42.702;23.178;2023-05-03T07:15:10;94017.25;;;9.93;77.09
11011;BME280;5558;42.702;23.178;2023-05-03T07:17:37;94010.47;;;10.07;80.22
11011;BME280;5558;42.702;23.178;2023-05-03T07:20:04;94021.31;;;10.05;76.41
11011;BME280;5558;42.702;23.178;2023-05-03T07:22:31;94026.00;;;10.20;77.59
11011;BME280;5558;42.702;23.178;2023-05-03T07:24:59;94035.03;;;10.29;75.98
11011;BME280;5558;42.702;23.178;2023-05-03T07:27:26;94035.66;;;10.41;76.04
11011;BME280;5558;42.702;23.178;2023-05-03T07:29:53;94050.09;;;10.60;74.12
11011;BME280;5558;42.702;23.178;2023-05-03T07:32:20;94050.91;;;10.60;72.56
11011;BME280;5558;42.702;23.178;2023-05-03T07:34:47;94040.16;;;10.77;72.47
11011;BME280;5558;42.702;23.178;2023-05-03T07:37:13;94038.53;;;10.76;71.07
11011;BME280;5558;42.702;23.178;2023-05-03T07:39:40;94032.03;;;10.93;71.63
11011;BME280;5558;42.702;23.178;2023-05-03T07:42:09;94033.91;;;11.03;70.94
11011;BME280;5558;42.702;23.178;2023-05-03T07:44:35;94036.53;;;10.98;70.72
11011;BME280;5558;42.702;23.178;2023-05-03T07:47:02;94027.44;;;11.31;71.06
11011;BME280;5558;42.702;23.178;2023-05-03T07:49:29;94035.56;;;11.14;68.29
11011;BME280;5558;42.702;23.178;2023-05-03T07:51:59;94024.22;;;11.24;71.94
11011;BME280;5558;42.702;23.178;2023-05-03T07:54:26;94016.00;;;11.25;71.29
11011;BME280;5558;42.702;23.178;2023-05-03T07:56:53;94025.50;;;11.11;71.52
11011;BME280;5558;42.702;23.178;2023-05-03T07:59:21;93997.78;;;10.77;70.30
11011;BME280;5558;42.702;23.178;2023-05-03T08:01:47;94014.69;;;11.23;73.21
11011;BME280;5558;42.702;23.178;2023-05-03T08:04:14;94021.41;;;11.60;72.73
11011;BME280;5558;42.702;23.178;2023-05-03T08:06:41;94015.63;;;11.63;69.73
11011;BME280;5558;42.702;23.178;2023-05-03T08:09:08;94014.59;;;11.79;70.48
11011;BME280;5558;42.702;23.178;2023-05-03T08:11:35;94023.09;;;11.76;68.35
11011;BME280;5558;42.702;23.178;2023-05-03T08:14:02;94019.91;;;11.84;69.86
11011;BME280;5558;42.702;23.178;2023-05-03T08:16:30;94023.38;;;11.80;71.50
11011;BME280;5558;42.702;23.178;2023-05-03T08:18:57;94034.78;;;11.85;71.49
11011;BME280;5558;42.702;23.178;2023-05-03T08:21:24;94038.19;;;11.76;68.36
11011;BME280;5558;42.702;23.178;2023-05-03T08:23:52;94038.47;;;11.74;67.88
11011;BME280;5558;42.702;23.178;2023-05-03T08:26:20;94042.50;;;12.07;68.11
11011;BME280;5558;42.702;23.178;2023-05-03T08:28:48;94031.34;;;12.55;65.49
11011;BME280;5558;42.702;23.178;2023-05-03T08:31:15;94035.81;;;12.95;63.53
11011;BME280;5558;42.702;23.178;2023-05-03T08:33:43;94033.50;;;12.63;65.10
11011;BME280;5558;42.702;23.178;2023-05-03T08:36:10;94035.63;;;12.51;66.11
11011;BME280;5558;42.702;23.178;2023-05-03T08:38:36;94029.16;;;13.17;65.52
11011;BME280;5558;42.702;23.178;2023-05-03T08:41:16;94040.50;;;13.38;63.02
11011;BME280;5558;42.702;23.178;2023-05-03T08:43:44;94039.91;;;13.56;61.30
11011;BME280;5558;42.702;23.178;2023-05-03T08:46:12;94026.41;;;13.91;59.35
11011;BME280;5558;42.702;23.178;2023-05-03T08:48:39;94028.41;;;14.48;63.05
11011;BME280;5558;42.702;23.178;2023-05-03T08:51:07;94039.88;;;14.10;59.10
11011;BME280;5558;42.702;23.178;2023-05-03T08:53:35;94030.38;;;13.94;60.30
11011;BME280;5558;42.702;23.178;2023-05-03T08:56:05;94033.59;;;13.91;60.43
11011;BME280;5558;42.702;23.178;2023-05-03T08:58:33;94027.88;;;14.07;60.37
11011;BME280;5558;42.702;23.178;2023-05-03T09:01:03;94028.09;;;13.72;60.74
11011;BME280;5558;42.702;23.178;2023-05-03T09:03:30;94026.31;;;14.06;61.97
11011;BME280;5558;42.702;23.178;2023-05-03T09:05:57;94032.56;;;13.28;61.08
11011;BME280;5558;42.702;23.178;2023-05-03T09:08:27;94034.19;;;13.24;62.42
11011;BME280;5558;42.702;23.178;2023-05-03T09:10:54;94037.13;;;13.22;63.78
11011;BME280;5558;42.702;23.178;2023-05-03T09:13:21;94034.38;;;13.42;62.96
11011;BME280;5558;42.702;23.178;2023-05-03T09:15:55;94023.16;;;13.56;60.53
11011;BME280;5558;42.702;23.178;2023-05-03T09:18:23;94026.91;;;13.98;59.09
11011;BME280;5558;42.702;23.178;2023-05-03T09:20:50;94010.06;;;14.08;59.57
11011;BME280;5558;42.702;23.178;2023-05-03T09:23:17;94019.53;;;14.62;60.04
11011;BME280;5558;42.702;23.178;2023-05-03T09:25:48;94016.16;;;14.52;57.74
11011;BME280;5558;42.702;23.178;2023-05-03T09:28:16;94023.41;;;14.41;56.25
11011;BME280;5558;42.702;23.178;2023-05-03T09:30:45;94012.63;;;14.56;56.46
11011;BME280;5558;42.702;23.178;2023-05-03T09:33:12;94008.38;;;14.55;56.26
11011;BME280;5558;42.702;23.178;2023-05-03T09:35:54;94006.97;;;14.92;56.84
11011;BME280;5558;42.702;23.178;2023-05-03T09:38:25;93998.72;;;15.17;55.01
11011;BME280;5558;42.702;23.178;2023-05-03T09:40:53;93994.56;;;15.53;52.71
11011;BME280;5558;42.702;23.178;2023-05-03T09:43:20;93974.19;;;15.80;52.49
11011;BME280;5558;42.702;23.178;2023-05-03T09:45:47;93995.09;;;16.29;51.16
11011;BME280;5558;42.702;23.178;2023-05-03T09:48:14;93992.13;;;16.31;51.86
11011;BME280;5558;42.702;23.178;2023-05-03T09:50:42;93976.34;;;16.66;50.45
11011;BME280;5558;42.702;23.178;2023-05-03T09:53:09;93977.03;;;16.40;49.83
11011;BME280;5558;42.702;23.178;2023-05-03T09:55:37;93987.38;;;16.46;51.52
11011;BME280;5558;42.702;23.178;2023-05-03T09:58:06;93983.59;;;16.29;52.96
11011;BME280;5558;42.702;23.178;2023-05-03T10:00:35;93979.53;;;15.99;52.16
11011;BME280;5558;42.702;23.178;2023-05-03T10:03:06;93994.81;;;15.75;53.76
11011;BME280;5558;42.702;23.178;2023-05-03T10:05:39;93976.56;;;15.63;53.91
11011;BME280;5558;42.702;23.178;2023-05-03T10:08:09;93983.16;;;15.00;55.96
11011;BME280;5558;42.702;23.178;2023-05-03T10:10:38;93983.13;;;14.77;56.08
11011;BME280;5558;42.702;23.178;2023-05-03T10:13:09;93983.38;;;14.80;55.87
11011;BME280;5558;42.702;23.178;2023-05-03T10:15:36;93978.56;;;15.06;56.91
11011;BME280;5558;42.702;23.178;2023-05-03T10:18:07;93945.19;;;15.32;53.67
11011;BME280;5558;42.702;23.178;2023-05-03T10:20:39;93965.09;;;15.63;54.10
11011;BME280;5558;42.702;23.178;2023-05-03T10:23:09;93961.06;;;15.84;54.99
11011;BME280;5558;42.702;23.178;2023-05-03T10:25:37;93950.09;;;16.04;56.27
11011;BME280;5558;42.702;23.178;2023-05-03T10:28:05;93948.91;;;16.10;57.45
11011;BME280;5558;42.702;23.178;2023-05-03T10:30:35;93932.97;;;15.49;53.74
11011;BME280;5558;42.702;23.178;2023-05-03T10:33:27;93930.59;;;15.48;56.36
11011;BME280;5558;42.702;23.178;2023-05-03T10:35:55;93936.13;;;15.33;56.47
11011;BME280;5558;42.702;23.178;2023-05-03T10:38:24;93944.81;;;15.62;55.56
11011;BME280;5558;42.702;23.178;2023-05-03T10:40:52;93947.78;;;15.79;54.57
11011;BME280;5558;42.702;23.178;2023-05-03T10:43:41;93949.53;;;16.21;54.79
11011;BME280;5558;42.702;23.178;2023-05-03T10:46:29;93943.00;;;16.77;52.55
11011;BME280;5558;42.702;23.178;2023-05-03T10:49:16;93945.75;;;16.59;53.82
11011;BME280;5558;42.702;23.178;2023-05-03T10:51:42;93945.63;;;16.50;53.09
11011;BME280;5558;42.702;23.178;2023-05-03T10:54:09;93948.78;;;16.52;54.74
11011;BME280;5558;42.702;23.178;2023-05-03T10:56:49;93945.69;;;16.45;52.41
11011;BME280;5558;42.702;23.178;2023-05-03T10:59:17;93954.63;;;16.04;53.99
11011;BME280;5558;42.702;23.178;2023-05-03T11:01:45;93949.00;;;16.37;52.98
11011;BME280;5558;42.702;23.178;2023-05-03T11:04:20;93943.56;;;16.10;55.87
11011;BME280;5558;42.702;23.178;2023-05-03T11:06:51;93937.03;;;16.03;55.88
11011;BME280;5558;42.702;23.178;2023-05-03T11:09:29;93931.66;;;16.21;55.73
11011;BME280;5558;42.702;23.178;2023-05-03T11:11:56;93929.09;;;16.30;56.41
11011;BME280;5558;42.702;23.178;2023-05-03T11:14:23;93935.56;;;15.92;54.80
11011;BME280;5558;42.702;23.178;2023-05-03T11:16:51;93919.47;;;15.97;58.61
11011;BME280;5558;42.702;23.178;2023-05-03T11:19:21;93923.03;;;15.92;55.52
11011;BME280;5558;42.702;23.178;2023-05-03T11:21:48;93933.88;;;15.82;57.03
11011;BME280;5558;42.702;23.178;2023-05-03T11:24:16;93926.50;;;15.93;57.06
11011;BME280;5558;42.702;23.178;2023-05-03T11:26:42;93928.13;;;16.07;55.82
11011;BME280;5558;42.702;23.178;2023-05-03T11:29:09;93919.06;;;16.40;54.93
11011;BME280;5558;42.702;23.178;2023-05-03T11:31:37;93924.53;;;16.17;57.31
11011;BME280;5558;42.702;23.178;2023-05-03T11:34:08;93924.53;;;16.17;56.27
11011;BME280;5558;42.702;23.178;2023-05-03T11:36:35;93904.44;;;16.19;55.80
11011;BME280;5558;42.702;23.178;2023-05-03T11:39:03;93902.91;;;16.32;56.62
11011;BME280;5558;42.702;23.178;2023-05-03T11:41:31;93900.13;;;16.37;55.77
11011;BME280;5558;42.702;23.178;2023-05-03T11:43:58;93902.38;;;16.62;55.54
11011;BME280;5558;42.702;23.178;2023-05-03T11:46:26;93898.84;;;16.93;55.77
11011;BME280;5558;42.702;23.178;2023-05-03T11:48:53;93896.66;;;17.09;55.83
11011;BME280;5558;42.702;23.178;2023-05-03T11:51:22;93879.41;;;17.15;58.34
11011;BME280;5558;42.702;23.178;2023-05-03T11:53:49;93863.84;;;17.31;54.89
11011;BME280;5558;42.702;23.178;2023-05-03T11:56:16;93855.16;;;16.98;54.33
11011;BME280;5558;42.702;23.178;2023-05-03T11:58:50;93852.53;;;17.20;57.93
11011;BME280;5558;42.702;23.178;2023-05-03T12:01:18;93859.16;;;17.85;56.60
11011;BME280;5558;42.702;23.178;2023-05-03T12:03:45;93852.75;;;17.95;53.52
11011;BME280;5558;42.702;23.178;2023-05-03T12:06:14;93835.81;;;17.28;54.13
11011;BME280;5558;42.702;23.178;2023-05-03T12:08:43;93855.81;;;17.17;54.38
11011;BME280;5558;42.702;23.178;2023-05-03T12:11:10;93850.22;;;16.91;55.46
11011;BME280;5558;42.702;23.178;2023-05-03T12:13:37;93840.63;;;16.77;58.55
11011;BME280;5558;42.702;23.178;2023-05-03T12:16:06;93848.84;;;16.67;56.57
11011;BME280;5558;42.702;23.178;2023-05-03T12:18:50;93844.00;;;16.82;57.92
11011;BME280;5558;42.702;23.178;2023-05-03T12:21:18;93857.81;;;16.44;57.83
11011;BME280;5558;42.702;23.178;2023-05-03T12:23:47;93836.38;;;16.62;60.48
11011;BME280;5558;42.702;23.178;2023-05-03T12:26:16;93833.09;;;16.65;59.84
11011;BME280;5558;42.702;23.178;2023-05-03T12:28:43;93841.56;;;16.27;58.98
11011;BME280;5558;42.702;23.178;2023-05-03T12:31:10;93842.00;;;16.15;58.35
11011;BME280;5558;42.702;23.178;2023-05-03T12:33:36;93840.06;;;15.88;60.22
11011;BME280;5558;42.702;23.178;2023-05-03T12:36:04;93831.25;;;15.56;60.86
11011;BME280;5558;42.702;23.178;2023-05-03T12:38:32;93834.56;;;15.48;63.70
11011;BME280;5558;42.702;23.178;2023-05-03T12:41:00;93837.34;;;15.19;65.32
11011;BME280;5558;42.702;23.178;2023-05-03T12:43:28;93837.47;;;14.91;65.84
11011;BME280;5558;42.702;23.178;2023-05-03T12:45:54;93854.91;;;14.59;66.34
11011;BME280;5558;42.702;23.178;2023-05-03T12:48:23;93838.19;;;14.30;67.97
11011;BME280;5558;42.702;23.178;2023-05-03T12:50:50;93831.84;;;14.26;70.19
11011;BME280;5558;42.702;23.178;2023-05-03T12:53:18;93837.69;;;14.23;71.24
11011;BME280;5558;42.702;23.178;2023-05-03T12:55:46;93850.69;;;14.01;71.22
11011;BME280;5558;42.702;23.178;2023-05-03T12:58:14;93841.47;;;13.89;70.93
11011;BME280;5558;42.702;23.178;2023-05-03T13:00:42;93829.81;;;13.85;72.06
11011;BME280;5558;42.702;23.178;2023-05-03T13:03:08;93825.50;;;13.89;72.22
11011;BME280;5558;42.702;23.178;2023-05-03T13:05:35;93829.25;;;13.88;73.67
11011;BME280;5558;42.702;23.178;2023-05-03T13:08:02;93815.63;;;13.94;73.97
11011;BME280;5558;42.702;23.178;2023-05-03T13:10:29;93822.22;;;14.02;73.11